sensor_id;sensor_type;location;lat;lon;timestamp;temperature;humidity
14737;DHT22;7459;53.590;10.062;2022-11-20T00:01:10;2.20;99.90
14737;DHT22;7459;53.590;10.062;2022-11-20T00:03:37;2.20;99.90
14737;DHT22;7459;53.590;10.062;2022-11-20T00:06:09;2.20;99.90
14737;DHT22;7459;53.590;10.062;2022-11-20T00:08:36;2.20;99.90
14737;DHT22;7459;53.590;10.062;2022-11-20T00:11:21;2.10;99.90
14737;DHT22;7459;53.590;10.062;2022-11-20T00:13:51;2.10;99.90
14737;DHT22;7459;53.590;10.062;2022-11-20T00:16:20;2.20;99.90
14737;DHT22;7459;53.590;10.062;2022-11-20T00:18:47;2.10;99.90
14737;DHT22;7459;53.590;10.062;2022-11-20T00:21:16;2.10;99.90
14737;DHT22;7459;53.590;10.062;2022-11-20T00:23:45;2.10;99.90
14737;DHT22;7459;53.590;10.062;2022-11-20T00:26:14;2.10;99.90
14737;DHT22;7459;53.590;10.062;2022-11-20T00:28:42;2.10;99.90
14737;DHT22;7459;53.590;10.062;2022-11-20T00:31:11;2.10;99.90
14737;DHT22;7459;53.590;10.062;2022-11-20T00:33:38;2.10;99.90
14737;DHT22;7459;53.590;10.062;2022-11-20T00:36:13;2.10;99.90
14737;DHT22;7459;53.590;10.062;2022-11-20T00:38:40;2.10;99.90
14737;DHT22;7459;53.590;10.062;2022-11-20T00:41:08;2.10;99.90
14737;DHT22;7459;53.590;10.062;2022-11-20T00:43:35;2.00;99.90
14737;DHT22;7459;53.590;10.062;2022-11-20T00:46:05;2.00;99.90
14737;DHT22;7459;53.590;10.062;2022-11-20T00:48:34;2.10;99.90
14737;DHT22;7459;53.590;10.062;2022-11-20T00:51:00;2.10;99.90
14737;DHT22;7459;53.590;10.062;2022-11-20T00:53:26;2.10;99.90
14737;DHT22;7459;53.590;10.062;2022-11-20T00:56:00;2.10;99.90
14737;DHT22;7459;53.590;10.062;2022-11-20T00:58:33;2.10;99.90
14737;DHT22;7459;53.590;10.062;2022-11-20T01:01:01;2.10;99.90
14737;DHT22;7459;53.590;10.062;2022-11-20T01:03:53;2.00;99.90
14737;DHT22;7459;53.590;10.062;2022-11-20T01:06:20;2.10;99.90
14737;DHT22;7459;53.590;10.062;2022-11-20T01:08:49;2.10;99.90
14737;DHT22;7459;53.590;10.062;2022-11-20T01:11:21;2.10;99.90
14737;DHT22;7459;53.590;10.062;2022-11-20T01:13:52;2.10;99.90
14737;DHT22;7459;53.590;10.062;2022-11-20T01:16:22;2.10;99.90
14737;DHT22;7459;53.590;10.062;2022-11-20T01:18:55;2.10;99.90
14737;DHT22;7459;53.590;10.062;2022-11-20T01:21:31;2.00;99.90
14737;DHT22;7459;53.590;10.062;2022-11-20T01:23:58;2.00;99.90
14737;DHT22;7459;53.590;10.062;2022-11-20T01:26:32;2.00;99.90
14737;DHT22;7459;53.590;10.062;2022-11-20T01:29:00;2.00;99.90
14737;DHT22;7459;53.590;10.062;2022-11-20T01:31:36;2.00;99.90
14737;DHT22;7459;53.590;10.062;2022-11-20T01:34:09;2.00;99.90
14737;DHT22;7459;53.590;10.062;2022-11-20T01:36:37;2.00;99.90
14737;DHT22;7459;53.590;10.062;2022-11-20T01:39:12;2.00;99.90
14737;DHT22;7459;53.590;10.062;2022-11-20T01:41:38;2.00;99.90
14737;DHT22;7459;53.590;10.062;2022-11-20T01:44:53;2.00;99.90
14737;DHT22;7459;53.590;10.062;2022-11-20T01:47:37;1.90;99.90
14737;DHT22;7459;53.590;10.062;2022-11-20T01:50:14;1.90;99.90
14737;DHT22;7459;53.590;10.062;2022-11-20T01:52:52;1.90;99.90
14737;DHT22;7459;53.590;10.062;2022-11-20T01:55:24;1.90;99.90
14737;DHT22;7459;53.590;10.062;2022-11-20T01:57:52;1.90;99.90
14737;DHT22;7459;53.590;10.062;2022-11-20T02:00:19;1.90;99.90
14737;DHT22;7459;53.590;10.062;2022-11-20T02:02:50;1.80;99.90
14737;DHT22;7459;53.590;10.062;2022-11-20T02:07:59;1.90;99.90
14737;DHT22;7459;53.590;10.062;2022-11-20T02:10:27;1.80;99.90
14737;DHT22;7459;53.590;10.062;2022-11-20T02:12:53;1.80;99.90
14737;DHT22;7459;53.590;10.062;2022-11-20T02:15:38;1.80;99.90
14737;DHT22;7459;53.590;10.062;2022-11-20T02:18:04;1.80;99.90
14737;DHT22;7459;53.590;10.062;2022-11-20T02:20:31;1.80;99.90
14737;DHT22;7459;53.590;10.062;2022-11-20T02:23:02;1.80;99.90
14737;DHT22;7459;53.590;10.062;2022-11-20T02:25:33;1.80;99.90
14737;DHT22;7459;53.590;10.062;2022-11-20T02:28:00;1.80;99.90
14737;DHT22;7459;53.590;10.062;2022-11-20T02:30:26;1.90;99.90
14737;DHT22;7459;53.590;10.062;2022-11-20T02:32:52;1.80;99.90
14737;DHT22;7459;53.590;10.062;2022-11-20T02:37:43;1.90;99.90
14737;DHT22;7459;53.590;10.062;2022-11-20T02:40:11;1.90;99.90
14737;DHT22;7459;53.590;10.062;2022-11-20T02:42:37;1.90;99.90
14737;DHT22;7459;53.590;10.062;2022-11-20T02:45:04;1.90;99.90
14737;DHT22;7459;53.590;10.062;2022-11-20T02:47:30;1.90;99.90
14737;DHT22;7459;53.590;10.062;2022-11-20T02:49:56;1.90;99.90
14737;DHT22;7459;53.590;10.062;2022-11-20T02:52:22;1.90;99.90
14737;DHT22;7459;53.590;10.062;2022-11-20T02:54:48;1.90;99.90
14737;DHT22;7459;53.590;10.062;2022-11-20T02:57:14;1.90;99.90
14737;DHT22;7459;53.590;10.062;2022-11-20T02:59:39;1.90;99.90
14737;DHT22;7459;53.590;10.062;2022-11-20T03:02:05;1.90;99.90
14737;DHT22;7459;53.590;10.062;2022-11-20T03:06:59;1.90;99.90
14737;DHT22;7459;53.590;10.062;2022-11-20T03:09:24;1.80;99.90
14737;DHT22;7459;53.590;10.062;2022-11-20T03:11:50;1.80;99.90
14737;DHT22;7459;53.590;10.062;2022-11-20T03:14:16;1.90;99.90
14737;DHT22;7459;53.590;10.062;2022-11-20T03:16:42;1.90;99.90
14737;DHT22;7459;53.590;10.062;2022-11-20T03:19:07;1.80;99.90
14737;DHT22;7459;53.590;10.062;2022-11-20T03:21:33;1.80;99.90
14737;DHT22;7459;53.590;10.062;2022-11-20T03:24:00;1.90;99.90
14737;DHT22;7459;53.590;10.062;2022-11-20T03:26:26;1.90;99.90
14737;DHT22;7459;53.590;10.062;2022-11-20T03:28:57;1.90;99.90
14737;DHT22;7459;53.590;10.062;2022-11-20T03:31:30;1.90;99.90
14737;DHT22;7459;53.590;10.062;2022-11-20T03:34:00;1.90;99.90
14737;DHT22;7459;53.590;10.062;2022-11-20T03:36:27;1.90;99.90
14737;DHT22;7459;53.590;10.062;2022-11-20T03:38:54;1.90;99.90
14737;DHT22;7459;53.590;10.062;2022-11-20T03:41:26;1.90;99.90
14737;DHT22;7459;53.590;10.062;2022-11-20T03:43:59;1.90;99.90
14737;DHT22;7459;53.590;10.062;2022-11-20T03:46:27;1.90;99.90
14737;DHT22;7459;53.590;10.062;2022-11-20T03:48:53;1.90;99.90
14737;DHT22;7459;53.590;10.062;2022-11-20T03:51:24;1.90;99.90
14737;DHT22;7459;53.590;10.062;2022-11-20T03:53:53;1.90;99.90
14737;DHT22;7459;53.590;10.062;2022-11-20T03:56:23;1.90;99.90
14737;DHT22;7459;53.590;10.062;2022-11-20T03:58:53;1.80;99.90
14737;DHT22;7459;53.590;10.062;2022-11-20T04:01:25;1.80;99.90
14737;DHT22;7459;53.590;10.062;2022-11-20T04:03:54;1.80;99.90
14737;DHT22;7459;53.590;10.062;2022-11-20T04:06:25;1.80;99.90
14737;DHT22;7459;53.590;10.062;2022-11-20T04:08:57;1.90;99.90
14737;DHT22;7459;53.590;10.062;2022-11-20T04:11:32;1.90;99.90
14737;DHT22;7459;53.590;10.062;2022-11-20T04:14:03;1.80;99.90
14737;DHT22;7459;53.590;10.062;2022-11-20T04:16:35;1.80;99.90
14737;DHT22;7459;53.590;10.062;2022-11-20T04:19:03;1.80;99.90
14737;DHT22;7459;53.590;10.062;2022-11-20T04:21:30;1.90;99.90
14737;DHT22;7459;53.590;10.062;2022-11-20T04:23:56;1.90;99.90
14737;DHT22;7459;53.590;10.062;2022-11-20T04:26:23;1.90;99.90
14737;DHT22;7459;53.590;10.062;2022-11-20T04:28:51;1.90;99.90
14737;DHT22;7459;53.590;10.062;2022-11-20T04:31:19;1.90;99.90
14737;DHT22;7459;53.590;10.062;2022-11-20T04:33:55;1.90;99.90
14737;DHT22;7459;53.590;10.062;2022-11-20T04:36:25;1.90;99.90
14737;DHT22;7459;53.590;10.062;2022-11-20T04:38:53;2.00;99.90
14737;DHT22;7459;53.590;10.062;2022-11-20T04:41:21;1.90;99.90
14737;DHT22;7459;53.590;10.062;2022-11-20T04:43:49;1.90;99.90
14737;DHT22;7459;53.590;10.062;2022-11-20T04:46:17;1.80;99.90
14737;DHT22;7459;53.590;10.062;2022-11-20T04:48:43;1.80;99.90
14737;DHT22;7459;53.590;10.062;2022-11-20T04:51:09;1.80;99.90
14737;DHT22;7459;53.590;10.062;2022-11-20T04:53:34;1.90;99.90
14737;DHT22;7459;53.590;10.062;2022-11-20T04:56:05;1.90;99.90
14737;DHT22;7459;53.590;10.062;2022-11-20T04:58:32;1.90;99.90
14737;DHT22;7459;53.590;10.062;2022-11-20T05:01:04;1.80;99.90
14737;DHT22;7459;53.590;10.062;2022-11-20T05:03:31;1.80;99.90
14737;DHT22;7459;53.590;10.062;2022-11-20T05:06:03;1.80;99.90
14737;DHT22;7459;53.590;10.062;2022-11-20T05:08:30;1.80;99.90
14737;DHT22;7459;53.590;10.062;2022-11-20T05:11:08;1.80;99.90
14737;DHT22;7459;53.590;10.062;2022-11-20T05:13:35;1.80;99.90
14737;DHT22;7459;53.590;10.062;2022-11-20T05:16:07;1.80;99.90
14737;DHT22;7459;53.590;10.062;2022-11-20T05:18:38;1.80;99.90
14737;DHT22;7459;53.590;10.062;2022-11-20T05:21:04;1.80;99.90
14737;DHT22;7459;53.590;10.062;2022-11-20T05:23:32;1.70;99.90
14737;DHT22;7459;53.590;10.062;2022-11-20T05:25:59;1.70;99.90
14737;DHT22;7459;53.590;10.062;2022-11-20T05:28:26;1.70;99.90
14737;DHT22;7459;53.590;10.062;2022-11-20T05:30:53;1.70;99.90
14737;DHT22;7459;53.590;10.062;2022-11-20T05:33:19;1.70;99.90
14737;DHT22;7459;53.590;10.062;2022-11-20T05:35:45;1.70;99.90
14737;DHT22;7459;53.590;10.062;2022-11-20T05:38:10;1.70;99.90
14737;DHT22;7459;53.590;10.062;2022-11-20T05:40:36;1.70;99.90
14737;DHT22;7459;53.590;10.062;2022-11-20T05:43:02;1.70;99.90
14737;DHT22;7459;53.590;10.062;2022-11-20T05:45:28;1.70;99.90
14737;DHT22;7459;53.590;10.062;2022-11-20T05:47:58;1.70;99.90
14737;DHT22;7459;53.590;10.062;2022-11-20T05:50:25;1.80;99.90
14737;DHT22;7459;53.590;10.062;2022-11-20T05:52:52;1.80;99.90
14737;DHT22;7459;53.590;10.062;2022-11-20T05:55:17;1.80;99.90
14737;DHT22;7459;53.590;10.062;2022-11-20T05:57:43;1.80;99.90
14737;DHT22;7459;53.590;10.062;2022-11-20T06:00:09;1.80;99.90
14737;DHT22;7459;53.590;10.062;2022-11-20T06:02:35;1.80;99.90
14737;DHT22;7459;53.590;10.062;2022-11-20T06:05:01;1.90;99.90
14737;DHT22;7459;53.590;10.062;2022-11-20T06:07:27;1.80;99.90
14737;DHT22;7459;53.590;10.062;2022-11-20T06:09:53;1.80;99.90
14737;DHT22;7459;53.590;10.062;2022-11-20T06:12:18;1.80;99.90
14737;DHT22;7459;53.590;10.062;2022-11-20T06:14:44;1.80;99.90
14737;DHT22;7459;53.590;10.062;2022-11-20T06:17:10;1.80;99.90
14737;DHT22;7459;53.590;10.062;2022-11-20T06:19:35;1.70;99.90
14737;DHT22;7459;53.590;10.062;2022-11-20T06:22:01;1.80;99.90
14737;DHT22;7459;53.590;10.062;2022-11-20T06:24:27;1.70;99.90
14737;DHT22;7459;53.590;10.062;2022-11-20T06:26:52;1.70;99.90
14737;DHT22;7459;53.590;10.062;2022-11-20T06:29:18;1.70;99.90
14737;DHT22;7459;53.590;10.062;2022-11-20T06:31:44;1.70;99.90
14737;DHT22;7459;53.590;10.062;2022-11-20T06:34:10;1.70;99.90
14737;DHT22;7459;53.590;10.062;2022-11-20T06:36:35;1.80;99.90
14737;DHT22;7459;53.590;10.062;2022-11-20T06:39:02;1.70;99.90
14737;DHT22;7459;53.590;10.062;2022-11-20T06:41:27;1.70;99.90
14737;DHT22;7459;53.590;10.062;2022-11-20T06:43:53;1.70;99.90
14737;DHT22;7459;53.590;10.062;2022-11-20T06:46:19;1.70;99.90
14737;DHT22;7459;53.590;10.062;2022-11-20T06:48:47;1.70;99.90
14737;DHT22;7459;53.590;10.062;2022-11-20T06:51:13;1.60;99.90
14737;DHT22;7459;53.590;10.062;2022-11-20T06:53:39;1.70;99.90
14737;DHT22;7459;53.590;10.062;2022-11-20T06:56:06;1.60;99.90
14737;DHT22;7459;53.590;10.062;2022-11-20T06:58:33;1.60;99.90
14737;DHT22;7459;53.590;10.062;2022-11-20T07:01:01;1.60;99.90
14737;DHT22;7459;53.590;10.062;2022-11-20T07:03:29;1.60;99.90
14737;DHT22;7459;53.590;10.062;2022-11-20T07:05:56;1.60;99.90
14737;DHT22;7459;53.590;10.062;2022-11-20T07:08:22;1.60;99.90
14737;DHT22;7459;53.590;10.062;2022-11-20T07:10:48;1.50;99.90
14737;DHT22;7459;53.590;10.062;2022-11-20T07:13:14;1.50;99.90
14737;DHT22;7459;53.590;10.062;2022-11-20T07:15:39;1.50;99.90
14737;DHT22;7459;53.590;10.062;2022-11-20T07:18:05;1.60;99.90
14737;DHT22;7459;53.590;10.062;2022-11-20T07:20:31;1.50;99.90
14737;DHT22;7459;53.590;10.062;2022-11-20T07:22:57;1.50;99.90
14737;DHT22;7459;53.590;10.062;2022-11-20T07:25:24;1.50;99.90
14737;DHT22;7459;53.590;10.062;2022-11-20T07:27:51;1.50;99.90
14737;DHT22;7459;53.590;10.062;2022-11-20T07:30:17;1.50;99.90
14737;DHT22;7459;53.590;10.062;2022-11-20T07:32:45;1.50;99.90
14737;DHT22;7459;53.590;10.062;2022-11-20T07:35:11;1.50;99.90
14737;DHT22;7459;53.590;10.062;2022-11-20T07:37:37;1.50;99.90
14737;DHT22;7459;53.590;10.062;2022-11-20T07:40:03;1.50;99.90
14737;DHT22;7459;53.590;10.062;2022-11-20T07:42:29;1.50;99.90
14737;DHT22;7459;53.590;10.062;2022-11-20T07:44:55;1.60;99.90
14737;DHT22;7459;53.590;10.062;2022-11-20T07:47:20;1.60;99.90
14737;DHT22;7459;53.590;10.062;2022-11-20T07:49:46;1.50;99.90
14737;DHT22;7459;53.590;10.062;2022-11-20T07:52:12;1.60;99.90
14737;DHT22;7459;53.590;10.062;2022-11-20T07:54:37;1.60;99.90
14737;DHT22;7459;53.590;10.062;2022-11-20T07:57:03;1.60;99.90
14737;DHT22;7459;53.590;10.062;2022-11-20T07:59:29;1.60;99.90
14737;DHT22;7459;53.590;10.062;2022-11-20T08:01:55;1.60;99.90
14737;DHT22;7459;53.590;10.062;2022-11-20T08:04:20;1.60;99.90
14737;DHT22;7459;53.590;10.062;2022-11-20T08:06:46;1.70;99.90
14737;DHT22;7459;53.590;10.062;2022-11-20T08:09:12;1.70;99.90
14737;DHT22;7459;53.590;10.062;2022-11-20T08:11:38;1.70;99.90
14737;DHT22;7459;53.590;10.062;2022-11-20T08:14:22;1.70;99.90
14737;DHT22;7459;53.590;10.062;2022-11-20T08:16:48;1.70;99.90
14737;DHT22;7459;53.590;10.062;2022-11-20T08:19:16;1.70;99.90
14737;DHT22;7459;53.590;10.062;2022-11-20T08:21:43;1.70;99.90
14737;DHT22;7459;53.590;10.062;2022-11-20T08:24:09;1.70;99.90
14737;DHT22;7459;53.590;10.062;2022-11-20T08:26:36;1.70;99.90
14737;DHT22;7459;53.590;10.062;2022-11-20T08:29:03;1.70;99.90
14737;DHT22;7459;53.590;10.062;2022-11-20T08:31:29;1.70;99.90
14737;DHT22;7459;53.590;10.062;2022-11-20T08:33:55;1.70;99.90
14737;DHT22;7459;53.590;10.062;2022-11-20T08:36:22;1.70;99.90
14737;DHT22;7459;53.590;10.062;2022-11-20T08:38:53;1.70;99.90
14737;DHT22;7459;53.590;10.062;2022-11-20T08:41:20;1.70;99.90
14737;DHT22;7459;53.590;10.062;2022-11-20T08:43:57;1.70;99.90
14737;DHT22;7459;53.590;10.062;2022-11-20T08:46:30;1.70;99.90
14737;DHT22;7459;53.590;10.062;2022-11-20T08:48:58;1.70;99.90
14737;DHT22;7459;53.590;10.062;2022-11-20T08:51:24;1.80;99.90
14737;DHT22;7459;53.590;10.062;2022-11-20T08:53:50;1.80;99.90
14737;DHT22;7459;53.590;10.062;2022-11-20T08:56:16;1.80;99.90
14737;DHT22;7459;53.590;10.062;2022-11-20T08:58:43;1.80;99.90
14737;DHT22;7459;53.590;10.062;2022-11-20T09:01:08;1.80;99.90
14737;DHT22;7459;53.590;10.062;2022-11-20T09:03:35;1.80;99.90
14737;DHT22;7459;53.590;10.062;2022-11-20T09:06:05;1.90;99.90
14737;DHT22;7459;53.590;10.062;2022-11-20T09:08:32;1.80;99.90
14737;DHT22;7459;53.590;10.062;2022-11-20T09:10:59;1.80;99.90
14737;DHT22;7459;53.590;10.062;2022-11-20T09:13:26;1.80;99.90
14737;DHT22;7459;53.590;10.062;2022-11-20T09:15:57;1.70;99.90
14737;DHT22;7459;53.590;10.062;2022-11-20T09:18:25;1.70;99.90
14737;DHT22;7459;53.590;10.062;2022-11-20T09:20:51;1.60;99.90
14737;DHT22;7459;53.590;10.062;2022-11-20T09:23:17;1.60;99.90
14737;DHT22;7459;53.590;10.062;2022-11-20T09:25:43;1.70;99.90
14737;DHT22;7459;53.590;10.062;2022-11-20T09:28:09;1.70;99.90
14737;DHT22;7459;53.590;10.062;2022-11-20T09:30:35;1.70;99.90
14737;DHT22;7459;53.590;10.062;2022-11-20T09:33:00;1.70;99.90
14737;DHT22;7459;53.590;10.062;2022-11-20T09:35:26;1.80;99.90
14737;DHT22;7459;53.590;10.062;2022-11-20T09:37:52;1.80;99.90
14737;DHT22;7459;53.590;10.062;2022-11-20T09:40:25;1.80;99.90
14737;DHT22;7459;53.590;10.062;2022-11-20T09:43:10;1.80;99.90
14737;DHT22;7459;53.590;10.062;2022-11-20T09:51:23;1.90;99.90
14737;DHT22;7459;53.590;10.062;2022-11-20T09:54:29;1.90;99.90
14737;DHT22;7459;53.590;10.062;2022-11-20T09:57:00;2.00;99.90
14737;DHT22;7459;53.590;10.062;2022-11-20T09:59:40;1.90;99.90
14737;DHT22;7459;53.590;10.062;2022-11-20T10:10:54;2.00;99.90
14737;DHT22;7459;53.590;10.062;2022-11-20T10:13:31;2.00;99.90
14737;DHT22;7459;53.590;10.062;2022-11-20T10:19:43;2.00;99.90
14737;DHT22;7459;53.590;10.062;2022-11-20T10:25:57;2.00;99.90
14737;DHT22;7459;53.590;10.062;2022-11-20T10:28:48;2.00;99.90
14737;DHT22;7459;53.590;10.062;2022-11-20T10:31:33;2.00;99.90
14737;DHT22;7459;53.590;10.062;2022-11-20T10:34:05;2.10;99.90
14737;DHT22;7459;53.590;10.062;2022-11-20T10:36:45;2.10;99.90
14737;DHT22;7459;53.590;10.062;2022-11-20T10:39:49;2.10;99.90
14737;DHT22;7459;53.590;10.062;2022-11-20T10:42:43;2.20;99.90
14737;DHT22;7459;53.590;10.062;2022-11-20T10:47:55;2.30;99.90
14737;DHT22;7459;53.590;10.062;2022-11-20T10:50:25;2.30;99.90
14737;DHT22;7459;53.590;10.062;2022-11-20T10:58:22;2.30;99.90
14737;DHT22;7459;53.590;10.062;2022-11-20T11:01:05;2.30;99.90
14737;DHT22;7459;53.590;10.062;2022-11-20T11:03:31;2.30;99.90
14737;DHT22;7459;53.590;10.062;2022-11-20T11:06:12;2.30;99.90
14737;DHT22;7459;53.590;10.062;2022-11-20T11:08:50;2.30;99.90
14737;DHT22;7459;53.590;10.062;2022-11-20T11:11:26;2.20;99.90
14737;DHT22;7459;53.590;10.062;2022-11-20T11:14:07;2.20;99.90
14737;DHT22;7459;53.590;10.062;2022-11-20T11:16:57;2.30;99.90
14737;DHT22;7459;53.590;10.062;2022-11-20T11:19:23;2.30;99.90
14737;DHT22;7459;53.590;10.062;2022-11-20T11:21:53;2.40;99.90
14737;DHT22;7459;53.590;10.062;2022-11-20T11:24:29;2.40;99.90
14737;DHT22;7459;53.590;10.062;2022-11-20T11:27:04;2.40;99.90
14737;DHT22;7459;53.590;10.062;2022-11-20T11:29:37;2.40;99.90
14737;DHT22;7459;53.590;10.062;2022-11-20T11:32:19;2.40;99.90
14737;DHT22;7459;53.590;10.062;2022-11-20T11:35:04;2.30;99.90
14737;DHT22;7459;53.590;10.062;2022-11-20T11:37:37;2.30;99.90
14737;DHT22;7459;53.590;10.062;2022-11-20T11:40:05;2.20;99.90
14737;DHT22;7459;53.590;10.062;2022-11-20T11:42:32;2.20;99.90
14737;DHT22;7459;53.590;10.062;2022-11-20T11:44:59;2.20;99.90
14737;DHT22;7459;53.590;10.062;2022-11-20T11:53:05;2.20;99.90
14737;DHT22;7459;53.590;10.062;2022-11-20T11:55:40;2.20;99.90
14737;DHT22;7459;53.590;10.062;2022-11-20T12:01:35;2.20;99.90
14737;DHT22;7459;53.590;10.062;2022-11-20T12:04:46;2.30;99.90
14737;DHT22;7459;53.590;10.062;2022-11-20T12:07:28;2.30;99.90
14737;DHT22;7459;53.590;10.062;2022-11-20T12:10:08;2.40;99.90
14737;DHT22;7459;53.590;10.062;2022-11-20T12:12:45;2.40;99.90
14737;DHT22;7459;53.590;10.062;2022-11-20T12:15:28;2.50;99.90
14737;DHT22;7459;53.590;10.062;2022-11-20T12:17:55;2.60;99.90
14737;DHT22;7459;53.590;10.062;2022-11-20T12:20:24;2.70;99.90
14737;DHT22;7459;53.590;10.062;2022-11-20T12:26:41;2.70;99.90
14737;DHT22;7459;53.590;10.062;2022-11-20T12:37:48;2.60;99.90
14737;DHT22;7459;53.590;10.062;2022-11-20T12:50:11;2.70;99.90
14737;DHT22;7459;53.590;10.062;2022-11-20T12:52:48;2.70;99.90
14737;DHT22;7459;53.590;10.062;2022-11-20T12:58:43;2.70;99.90
14737;DHT22;7459;53.590;10.062;2022-11-20T13:02:03;2.70;99.90
14737;DHT22;7459;53.590;10.062;2022-11-20T13:07:13;2.70;99.90
14737;DHT22;7459;53.590;10.062;2022-11-20T13:09:48;2.70;99.90
14737;DHT22;7459;53.590;10.062;2022-11-20T13:12:40;2.70;99.90
14737;DHT22;7459;53.590;10.062;2022-11-20T13:15:34;2.70;99.90
14737;DHT22;7459;53.590;10.062;2022-11-20T13:18:11;2.70;99.90
14737;DHT22;7459;53.590;10.062;2022-11-20T13:20:44;2.80;99.90
14737;DHT22;7459;53.590;10.062;2022-11-20T13:23:23;2.80;99.90
14737;DHT22;7459;53.590;10.062;2022-11-20T13:25:50;2.80;99.90
14737;DHT22;7459;53.590;10.062;2022-11-20T13:30:51;2.80;99.90
14737;DHT22;7459;53.590;10.062;2022-11-20T13:33:37;2.80;99.90
14737;DHT22;7459;53.590;10.062;2022-11-20T13:36:05;2.80;99.90
14737;DHT22;7459;53.590;10.062;2022-11-20T13:38:50;2.70;99.90
14737;DHT22;7459;53.590;10.062;2022-11-20T13:41:32;2.80;99.90
14737;DHT22;7459;53.590;10.062;2022-11-20T13:44:26;2.80;99.90
14737;DHT22;7459;53.590;10.062;2022-11-20T13:46:55;2.80;99.90
14737;DHT22;7459;53.590;10.062;2022-11-20T13:49:37;2.80;99.90
14737;DHT22;7459;53.590;10.062;2022-11-20T13:52:36;2.80;99.90
14737;DHT22;7459;53.590;10.062;2022-11-20T13:55:45;2.80;99.90
14737;DHT22;7459;53.590;10.062;2022-11-20T13:58:40;2.80;99.90
14737;DHT22;7459;53.590;10.062;2022-11-20T14:01:15;2.70;99.90
14737;DHT22;7459;53.590;10.062;2022-11-20T14:03:43;2.80;99.90
14737;DHT22;7459;53.590;10.062;2022-11-20T14:06:18;2.80;99.90
14737;DHT22;7459;53.590;10.062;2022-11-20T14:08:53;2.80;99.90
14737;DHT22;7459;53.590;10.062;2022-11-20T14:11:21;2.80;99.90
14737;DHT22;7459;53.590;10.062;2022-11-20T14:16:38;2.80;99.90
14737;DHT22;7459;53.590;10.062;2022-11-20T14:21:49;2.80;99.90
14737;DHT22;7459;53.590;10.062;2022-11-20T14:24:24;2.70;99.90
14737;DHT22;7459;53.590;10.062;2022-11-20T14:26:51;2.70;99.90
14737;DHT22;7459;53.590;10.062;2022-11-20T14:29:28;2.70;99.90
14737;DHT22;7459;53.590;10.062;2022-11-20T14:31:56;2.80;99.90
14737;DHT22;7459;53.590;10.062;2022-11-20T14:34:25;2.80;99.90
14737;DHT22;7459;53.590;10.062;2022-11-20T14:37:00;2.80;99.90
14737;DHT22;7459;53.590;10.062;2022-11-20T14:39:40;2.80;99.90
14737;DHT22;7459;53.590;10.062;2022-11-20T14:42:22;2.70;99.90
14737;DHT22;7459;53.590;10.062;2022-11-20T14:44:50;2.70;99.90
14737;DHT22;7459;53.590;10.062;2022-11-20T14:47:23;2.70;99.90
14737;DHT22;7459;53.590;10.062;2022-11-20T14:49:51;2.60;99.90
14737;DHT22;7459;53.590;10.062;2022-11-20T14:52:23;2.60;99.90
14737;DHT22;7459;53.590;10.062;2022-11-20T14:54:51;2.60;99.90
14737;DHT22;7459;53.590;10.062;2022-11-20T14:57:27;2.60;99.90
14737;DHT22;7459;53.590;10.062;2022-11-20T15:00:19;2.60;99.90
14737;DHT22;7459;53.590;10.062;2022-11-20T15:02:48;2.50;99.90
14737;DHT22;7459;53.590;10.062;2022-11-20T15:05:16;2.60;99.90
14737;DHT22;7459;53.590;10.062;2022-11-20T15:07:46;2.50;99.90
14737;DHT22;7459;53.590;10.062;2022-11-20T15:12:54;2.50;99.90
14737;DHT22;7459;53.590;10.062;2022-11-20T15:15:47;2.50;99.90
14737;DHT22;7459;53.590;10.062;2022-11-20T15:18:20;2.50;99.90
14737;DHT22;7459;53.590;10.062;2022-11-20T15:20:47;2.50;99.90
14737;DHT22;7459;53.590;10.062;2022-11-20T15:23:18;2.50;99.90
14737;DHT22;7459;53.590;10.062;2022-11-20T15:25:44;2.60;99.90
14737;DHT22;7459;53.590;10.062;2022-11-20T15:28:16;2.60;99.90
14737;DHT22;7459;53.590;10.062;2022-11-20T15:30:42;2.60;99.90
14737;DHT22;7459;53.590;10.062;2022-11-20T15:33:09;2.60;99.90
14737;DHT22;7459;53.590;10.062;2022-11-20T15:35:35;2.60;99.90
14737;DHT22;7459;53.590;10.062;2022-11-20T15:38:01;2.60;99.90
14737;DHT22;7459;53.590;10.062;2022-11-20T15:40:26;2.60;99.90
14737;DHT22;7459;53.590;10.062;2022-11-20T15:42:52;2.60;99.90
14737;DHT22;7459;53.590;10.062;2022-11-20T15:45:38;2.60;99.90
14737;DHT22;7459;53.590;10.062;2022-11-20T15:48:24;2.60;99.90
14737;DHT22;7459;53.590;10.062;2022-11-20T15:51:01;2.60;99.90
14737;DHT22;7459;53.590;10.062;2022-11-20T15:53:29;2.50;99.90
14737;DHT22;7459;53.590;10.062;2022-11-20T15:55:55;2.50;99.90
14737;DHT22;7459;53.590;10.062;2022-11-20T15:58:21;2.50;99.90
14737;DHT22;7459;53.590;10.062;2022-11-20T16:00:48;2.50;99.90
14737;DHT22;7459;53.590;10.062;2022-11-20T16:03:16;2.50;99.90
14737;DHT22;7459;53.590;10.062;2022-11-20T16:05:43;2.50;99.90
14737;DHT22;7459;53.590;10.062;2022-11-20T16:08:09;2.50;99.90
14737;DHT22;7459;53.590;10.062;2022-11-20T16:10:35;2.50;99.90
14737;DHT22;7459;53.590;10.062;2022-11-20T16:13:01;2.50;99.90
14737;DHT22;7459;53.590;10.062;2022-11-20T16:15:55;2.50;99.90
14737;DHT22;7459;53.590;10.062;2022-11-20T16:18:23;2.60;99.90
14737;DHT22;7459;53.590;10.062;2022-11-20T16:20:51;2.60;99.90
14737;DHT22;7459;53.590;10.062;2022-11-20T16:23:18;2.60;99.90
14737;DHT22;7459;53.590;10.062;2022-11-20T16:25:46;2.60;99.90
14737;DHT22;7459;53.590;10.062;2022-11-20T16:28:12;2.60;99.90
14737;DHT22;7459;53.590;10.062;2022-11-20T16:30:38;2.60;99.90
14737;DHT22;7459;53.590;10.062;2022-11-20T16:33:04;2.60;99.90
14737;DHT22;7459;53.590;10.062;2022-11-20T16:35:35;2.60;99.90
14737;DHT22;7459;53.590;10.062;2022-11-20T16:38:01;2.50;99.90
14737;DHT22;7459;53.590;10.062;2022-11-20T16:40:26;2.60;99.90
14737;DHT22;7459;53.590;10.062;2022-11-20T16:42:52;2.60;99.90
14737;DHT22;7459;53.590;10.062;2022-11-20T16:45:18;2.50;99.90
14737;DHT22;7459;53.590;10.062;2022-11-20T16:47:43;2.50;99.90
14737;DHT22;7459;53.590;10.062;2022-11-20T16:50:09;2.50;99.90
14737;DHT22;7459;53.590;10.062;2022-11-20T16:52:35;2.50;99.90
14737;DHT22;7459;53.590;10.062;2022-11-20T16:55:01;2.60;99.90
14737;DHT22;7459;53.590;10.062;2022-11-20T16:57:28;2.60;99.90
14737;DHT22;7459;53.590;10.062;2022-11-20T16:59:54;2.50;99.90
14737;DHT22;7459;53.590;10.062;2022-11-20T17:02:20;2.60;99.90
14737;DHT22;7459;53.590;10.062;2022-11-20T17:04:46;2.50;99.90
14737;DHT22;7459;53.590;10.062;2022-11-20T17:07:12;2.50;99.90
14737;DHT22;7459;53.590;10.062;2022-11-20T17:09:38;2.50;99.90
14737;DHT22;7459;53.590;10.062;2022-11-20T17:12:04;2.50;99.90
14737;DHT22;7459;53.590;10.062;2022-11-20T17:14:30;2.50;99.90
14737;DHT22;7459;53.590;10.062;2022-11-20T17:16:56;2.50;99.90
14737;DHT22;7459;53.590;10.062;2022-11-20T17:19:21;2.50;99.90
14737;DHT22;7459;53.590;10.062;2022-11-20T17:21:47;2.50;99.90
14737;DHT22;7459;53.590;10.062;2022-11-20T17:24:13;2.50;99.90
14737;DHT22;7459;53.590;10.062;2022-11-20T17:26:43;2.50;99.90
14737;DHT22;7459;53.590;10.062;2022-11-20T17:29:12;2.50;99.90
14737;DHT22;7459;53.590;10.062;2022-11-20T17:31:39;2.50;99.90